Airfield :
LOGIN :

Register | Disclaimer

   EN    FR    IT 

 










Legend :    VFR   Marginal VFR   IFR   Intensive IFR   Very Intensive IFR
Visi :
Ceiling :
>= 8 km
>= 3000ft
5 to 8 km
1000 to 3000 ft
1500m to 5 km
500 to 1000 ft
800 to 1500m
200 to 500 ft
< 800m
< 200 ft
Symbols :   Thunderstorms  Fog  Heavy snow  Heavy precipitations  Wind > 20 kt
SIGMETs :     Misc.  Thunderstorms  Icing  Turbulence  Mountain Waves  Volcanic Ashes







- Airport Elevation : 209 ft
- IATA code : CLY
- Download approach charts


LFKC - Calvi

CURRENT METAR :
  • 152000Z AUTO 01009KT 330V050 9999 -RA SCT018/// SCT030/// BKN050/// ///TCU 20/18 Q1008 BECMG SCT040

EXPIRED METARs :
  • 151930Z AUTO 01012KT 8000 RA FEW024/// BKN048/// BKN100/// ///CB 20/18 Q1007 TEMPO 18005KT BECMG NSW SCT040
  • 151900Z AUTO 03014KT 9999 SCT027/// BKN041/// BKN049/// ///TCU 22/17 Q1006 BECMG SCT040
  • 151830Z AUTO 02015KT 9999 SCT028/// SCT037/// BKN052/// ///TCU 22/16 Q1005 BECMG SCT040
  • 151800Z AUTO 02015KT 9999 FEW037/// BKN048/// BKN058/// ///CB 22/17 Q1005 TEMPO 03015G25KT 4000 TSRA BECMG SCT040
  • 151730Z AUTO 03012KT 9999 FEW020/// SCT034/// BKN043/// ///CB 22/18 Q1004 TEMPO 03015G25KT 4000 TSRA BECMG SCT040

TAF AMD TAF LFKC
Valid from the 15 at 20:00 until the 16 at 15:00 UTC


152002Z 1520/1615 02012KT 9999 FEW025 BKN050 TX27/1609Z TN19/1604Z
BECMG 1523/1524 SCT040
TEMPO 1521/1607 18005KT
TEMPO 1520/1523 RA FEW026CB
ATIS : +33 4 95 65 82 49
No reported NOTAMs for that airfield.
2 SIGMETs reported for the Marseille FIR (LFMM) :
 
Embedded thunderstorms
LFMM SIGMET 16 VALID 152000/160000 LFPW
LFMM MARSEILLE FIR/UIR EMBD TS FCST WI N4245 E00945 - N4115 E00945 - N4115 E00845 - N4230 E00900 - N4245 E00945 TOP FL320 MOV SE 15KT WKN=
Severe turbulence
LFMM SIGMET 14 VALID 151800/152000 LFPW
LFMM MARSEILLE FIR/UIR SEV TURB FCST WI N4430 E00700 - N4400 E00700 - N4415 E00615 - N4430 E00700 SFC/FL100 STNR NC=



MET'MAP, your aeronautical weather chart ! - Copyright ORBIFLY December 2007 - Disclaimer

ORBIFLY MET'MAP TEAM :

Programming & Development : Alexandra Zaïnal
Concept & Development : Baudouin d'Aumeries
Co-Development & Prog : Marc-Olivier Méhu
Technical & hardware support : Manuel Goepfert

Contact : metmap@orbifly.com




SOURCES & CREDITS :

   NOAA